Time;durP1;ratioP1;P1;durP2;ratioP2;P2;SDS_P1;SDS_P2;PMS_P1;PMS_P2;Temp;Humidity;BMP_temperature;BMP_pressure;BME280_temperature;BME280_humidity;BME280_pressure;Samples;Min_cycle;Max_cycle;Signal;HPM_P1;HPM_P2
2021/12/21 00:00:12;;;;;;;;;;;;;;;;;;5048763;28;20420;-78
2021/12/21 00:02:41;;;;;;;;;;;;;;;;;;5050955;28;19916;-78
2021/12/21 00:05:07;;;;;;;;;;;;;;;;;;5055869;28;19920;-78
2021/12/21 00:07:32;;;;;;;;;;;;;;;;;;5050876;28;20324;-78
2021/12/21 00:09:57;;;;;;;;;;;;;;;;;;5045765;28;19999;-78
2021/12/21 00:12:26;;;;;;;;;;;;;;;;;;5050744;28;19921;-78
2021/12/21 00:15:01;;;;;;;;;;;;;;;;;;5046849;28;19913;-78
2021/12/21 00:24:58;;;;;;;;;;;;;;;;;;5049456;28;19999;-78
2021/12/21 00:27:24;;;;;;;;;;;;;;;;;;5047894;28;19913;-78
2021/12/21 00:29:49;;;;;;;;;;;;;;;;;;5050979;28;19913;-77
2021/12/21 00:32:14;;;;;;;;;;;;;;;;;;5050618;28;19954;-77
2021/12/21 00:34:42;;;;;;;;;;;;;;;;;;5051015;28;19966;-77
2021/12/21 00:37:07;;;;;;;;;;;;;;;;;;5050880;28;20266;-77
2021/12/21 00:39:33;;;;;;;;;;;;;;;;;;5048115;28;19924;-77
2021/12/21 00:42:01;;;;;;;;;;;;;;;;;;5048874;28;20784;-78
2021/12/21 00:44:26;;;;;;;;;;;;;;;;;;5050584;28;20288;-77
2021/12/21 00:46:52;;;;;;;;;;;;;;;;;;5046690;28;19912;-76
2021/12/21 00:49:17;;;;;;;;;;;;;;;;;;5049198;28;19924;-77
2021/12/21 00:51:43;;;;;;;;;;;;;;;;;;5050905;28;19921;-76
2021/12/21 00:54:09;;;;;;;;;;;;;;;;;;5050279;28;19919;-77
2021/12/21 00:56:37;;;;;;;;;;;;;;;;;;5050251;28;19912;-77
2021/12/21 00:59:03;;;;;;;;;;;;;;;;;;5047531;28;20339;-77
2021/12/21 01:01:29;;;;;;;;;;;;;;;;;;5045653;28;19916;-77
2021/12/21 01:03:56;;;;;;;;;;;;;;;;;;5077940;28;20001;-76
2021/12/21 01:11:38;;;;;;;;;;;;;;;;;;5050765;28;19974;-77
2021/12/21 01:14:33;;;;;;;;;;;;;;;;;;5051236;28;19921;-77
2021/12/21 01:19:59;;;;;;;;;;;;;;;;;;5049043;28;19952;-78
2021/12/21 01:23:01;;;;;;;;;;;;;;;;;;5051514;28;20016;-77
2021/12/21 01:25:37;;;;;;;;;;;;;;;;;;5053968;28;19924;-78
2021/12/21 01:28:02;;;;;;;;;;;;;;;;;;5051922;28;19927;-78
2021/12/21 01:35:53;;;;;;;;;;;;;;;;;;5048463;28;20276;-77
2021/12/21 01:38:47;;;;;;;;;;;;;;;;;;5052111;28;20354;-78
2021/12/21 01:41:36;;;;;;;;;;;;;;;;;;5047053;28;19913;-78
2021/12/21 01:44:16;;;;;;;;;;;;;;;;;;5052235;28;19920;-77
2021/12/21 01:49:36;;;;;;;;;;;;;;;;;;5049343;28;20414;-77
2021/12/21 01:52:03;;;;;;;;;;;;;;;;;;5049027;28;20406;-78
2021/12/21 01:54:28;;;;;;;;;;;;;;;;;;5073057;28;19931;-78
2021/12/21 01:56:54;;;;;;;;;;;;;;;;;;5050582;28;19913;-78
2021/12/21 01:59:19;;;;;;;;;;;;;;;;;;5051508;28;20415;-77
2021/12/21 02:01:45;;;;;;;;;;;;;;;;;;5047183;28;19919;-78
2021/12/21 02:04:15;;;;;;;;;;;;;;;;;;5051096;28;19999;-78
2021/12/21 02:06:41;;;;;;;;;;;;;;;;;;5052714;28;19935;-78
2021/12/21 02:09:06;;;;;;;;;;;;;;;;;;5054066;28;19917;-78
2021/12/21 02:11:31;;;;;;;;;;;;;;;;;;5055078;28;19927;-76
2021/12/21 02:13:57;;;;;;;;;;;;;;;;;;5054517;28;20348;-78
2021/12/21 02:16:29;;;;;;;;;;;;;;;;;;5061533;28;19944;-78
2021/12/21 02:19:03;;;;;;;;;;;;;;;;;;5060570;28;19939;-76
2021/12/21 02:21:38;;;;;;;;;;;;;;;;;;5060537;28;20011;-77
2021/12/21 02:24:09;;;;;;;;;;;;;;;;;;5081280;28;19912;-78
2021/12/21 02:26:41;;;;;;;;;;;;;;;;;;5055302;28;19966;-77
2021/12/21 02:31:43;;;;;;;;;;;;;;;;;;5049790;28;19921;-78
2021/12/21 02:34:09;;;;;;;;;;;;;;;;;;5052457;28;19913;-77
2021/12/21 02:36:34;;;;;;;;;;;;;;;;;;5054647;28;19966;-78
2021/12/21 02:39:01;;;;;;;;;;;;;;;;;;5051771;28;19962;-78
2021/12/21 02:41:26;;;;;;;;;;;;;;;;;;5050758;28;19920;-78
2021/12/21 02:43:56;;;;;;;;;;;;;;;;;;5049263;28;20710;-78
2021/12/21 02:46:22;;;;;;;;;;;;;;;;;;5058417;28;19941;-78
2021/12/21 02:48:47;;;;;;;;;;;;;;;;;;5053393;28;19942;-78
2021/12/21 02:51:15;;;;;;;;;;;;;;;;;;5050750;28;19991;-77
2021/12/21 02:53:41;;;;;;;;;;;;;;;;;;5047541;28;20358;-78
2021/12/21 02:56:08;;;;;;;;;;;;;;;;;;5048726;28;19913;-77
2021/12/21 02:58:34;;;;;;;;;;;;;;;;;;5045235;28;20385;-76
2021/12/21 03:00:59;;;;;;;;;;;;;;;;;;5055854;28;19924;-76
2021/12/21 03:03:26;;;;;;;;;;;;;;;;;;5051102;28;19931;-78
2021/12/21 03:05:56;;;;;;;;;;;;;;;;;;5046517;28;20269;-78
2021/12/21 03:08:26;;;;;;;;;;;;;;;;;;5052140;28;19916;-77
2021/12/21 03:13:54;;;;;;;;;;;;;;;;;;5050162;28;19923;-77
2021/12/21 03:16:20;;;;;;;;;;;;;;;;;;5049847;28;19913;-78
2021/12/21 03:18:45;;;;;;;;;;;;;;;;;;5049438;28;19927;-78
2021/12/21 03:21:11;;;;;;;;;;;;;;;;;;5048543;28;19924;-77
2021/12/21 03:23:37;;;;;;;;;;;;;;;;;;5049552;28;19924;-78
2021/12/21 03:26:05;;;;;;;;;;;;;;;;;;5054657;28;20372;-77
2021/12/21 03:28:31;;;;;;;;;;;;;;;;;;5052457;28;20396;-77
2021/12/21 03:30:56;;;;;;;;;;;;;;;;;;5057899;28;20301;-77
2021/12/21 03:33:21;;;;;;;;;;;;;;;;;;5052141;28;19913;-77
2021/12/21 03:35:47;;;;;;;;;;;;;;;;;;5080643;28;19956;-77
2021/12/21 03:38:14;;;;;;;;;;;;;;;;;;5050491;28;19917;-77
2021/12/21 03:40:40;;;;;;;;;;;;;;;;;;5047568;28;20039;-79
2021/12/21 03:43:05;;;;;;;;;;;;;;;;;;5046043;28;20015;-78
2021/12/21 03:45:34;;;;;;;;;;;;;;;;;;5052504;28;19912;-76
2021/12/21 03:48:00;;;;;;;;;;;;;;;;;;5056463;28;20011;-77
2021/12/21 03:50:27;;;;;;;;;;;;;;;;;;5049847;28;20003;-76
2021/12/21 03:52:52;;;;;;;;;;;;;;;;;;5047201;28;19913;-78
2021/12/21 03:55:18;;;;;;;;;;;;;;;;;;5047029;28;20287;-77
2021/12/21 03:57:45;;;;;;;;;;;;;;;;;;5049162;28;20379;-78
2021/12/21 04:00:13;;;;;;;;;;;;;;;;;;5048957;28;19925;-77
2021/12/21 04:02:38;;;;;;;;;;;;;;;;;;5065852;28;19966;-78
2021/12/21 04:05:04;;;;;;;;;;;;;;;;;;5048605;28;19960;-78
2021/12/21 04:07:29;;;;;;;;;;;;;;;;;;5048365;28;19927;-78
2021/12/21 04:09:55;;;;;;;;;;;;;;;;;;5051196;28;19947;-78
2021/12/21 04:12:20;;;;;;;;;;;;;;;;;;5051451;28;20327;-78
2021/12/21 04:14:46;;;;;;;;;;;;;;;;;;5069346;28;19920;-78
2021/12/21 04:17:17;;;;;;;;;;;;;;;;;;5072536;28;19959;-78
2021/12/21 04:19:43;;;;;;;;;;;;;;;;;;5051554;28;19924;-78
2021/12/21 04:22:09;;;;;;;;;;;;;;;;;;5050823;28;19996;-78
2021/12/21 04:24:34;;;;;;;;;;;;;;;;;;5050825;28;19919;-77
2021/12/21 04:26:59;;;;;;;;;;;;;;;;;;5047866;28;19912;-77
2021/12/21 04:29:24;;;;;;;;;;;;;;;;;;5052514;28;19959;-78
2021/12/21 04:31:50;;;;;;;;;;;;;;;;;;5052253;28;19920;-79
2021/12/21 04:34:15;;;;;;;;;;;;;;;;;;5053960;28;20417;-75
2021/12/21 04:36:42;;;;;;;;;;;;;;;;;;5048364;28;20486;-77
2021/12/21 04:39:18;;;;;;;;;;;;;;;;;;5049296;28;20284;-78
2021/12/21 04:41:44;;;;;;;;;;;;;;;;;;5047576;28;19954;-78
2021/12/21 04:44:10;;;;;;;;;;;;;;;;;;5047904;28;20011;-78
2021/12/21 04:46:35;;;;;;;;;;;;;;;;;;5051060;28;19912;-76
2021/12/21 04:49:01;;;;;;;;;;;;;;;;;;5046605;28;19919;-77
2021/12/21 04:51:26;;;;;;;;;;;;;;;;;;5050201;28;20361;-78
2021/12/21 04:53:51;;;;;;;;;;;;;;;;;;5072139;28;21267;-77
2021/12/21 04:56:17;;;;;;;;;;;;;;;;;;5049003;28;20050;-78
2021/12/21 04:58:42;;;;;;;;;;;;;;;;;;5052278;28;19917;-77
2021/12/21 05:01:07;;;;;;;;;;;;;;;;;;5043738;28;19913;-77
2021/12/21 05:03:33;;;;;;;;;;;;;;;;;;5043403;28;19924;-76
2021/12/21 05:05:59;;;;;;;;;;;;;;;;;;5047341;28;20296;-76
2021/12/21 05:08:29;;;;;;;;;;;;;;;;;;5052057;28;19928;-77
2021/12/21 05:11:01;;;;;;;;;;;;;;;;;;5049552;28;19912;-77
2021/12/21 05:13:28;;;;;;;;;;;;;;;;;;5045056;28;20379;-78
2021/12/21 05:15:56;;;;;;;;;;;;;;;;;;5045061;28;19913;-78
2021/12/21 05:18:24;;;;;;;;;;;;;;;;;;5048300;28;19964;-78
2021/12/21 05:20:50;;;;;;;;;;;;;;;;;;5051274;28;19992;-78
2021/12/21 05:23:15;;;;;;;;;;;;;;;;;;5049464;28;19917;-77
2021/12/21 05:25:41;;;;;;;;;;;;;;;;;;5051044;28;19932;-78
2021/12/21 05:28:07;;;;;;;;;;;;;;;;;;5048039;28;20264;-77
2021/12/21 05:30:34;;;;;;;;;;;;;;;;;;5050754;28;20390;-77
2021/12/21 05:33:00;;;;;;;;;;;;;;;;;;5055184;28;19959;-78
2021/12/21 05:35:26;;;;;;;;;;;;;;;;;;5047755;28;19917;-78
2021/12/21 05:37:55;;;;;;;;;;;;;;;;;;5048585;28;19925;-79
2021/12/21 05:40:30;;;;;;;;;;;;;;;;;;5046649;28;20209;-77
2021/12/21 05:42:55;;;;;;;;;;;;;;;;;;5047409;28;19913;-77
2021/12/21 05:45:20;;;;;;;;;;;;;;;;;;5047563;28;20326;-78
2021/12/21 05:47:45;;;;;;;;;;;;;;;;;;5045010;28;20011;-77
2021/12/21 05:50:15;;;;;;;;;;;;;;;;;;5046675;28;19913;-76
2021/12/21 05:52:40;;;;;;;;;;;;;;;;;;5048758;28;19931;-77
2021/12/21 05:55:06;;;;;;;;;;;;;;;;;;5047422;28;19913;-77
2021/12/21 05:57:32;;;;;;;;;;;;;;;;;;5072954;28;19917;-77
2021/12/21 05:59:57;;;;;;;;;;;;;;;;;;5048688;28;20281;-77
2021/12/21 06:02:22;;;;;;;;;;;;;;;;;;5067764;28;19935;-76
2021/12/21 06:04:50;;;;;;;;;;;;;;;;;;5050244;28;19913;-77
2021/12/21 06:07:16;;;;;;;;;;;;;;;;;;5049522;28;19952;-76
2021/12/21 06:09:44;;;;;;;;;;;;;;;;;;5044163;28;19994;-75
2021/12/21 06:12:34;;;;;;;;;;;;;;;;;;5044804;28;19983;-76
2021/12/21 06:23:27;;;;;;;;;;;;;;;;;;5048800;28;19920;-77
2021/12/21 06:26:03;;;;;;;;;;;;;;;;;;5049127;28;19916;-76
2021/12/21 06:28:28;;;;;;;;;;;;;;;;;;5072572;28;20495;-76
2021/12/21 06:30:54;;;;;;;;;;;;;;;;;;5045610;28;20016;-77
2021/12/21 06:33:19;;;;;;;;;;;;;;;;;;5047554;28;19948;-76
2021/12/21 06:35:47;;;;;;;;;;;;;;;;;;5047396;28;19924;-76
2021/12/21 06:38:13;;;;;;;;;;;;;;;;;;5048170;28;19912;-76
2021/12/21 06:40:40;;;;;;;;;;;;;;;;;;5044370;28;19925;-76
2021/12/21 06:43:11;;;;;;;;;;;;;;;;;;5045197;28;20356;-76
2021/12/21 06:53:33;;;;;;;;;;;;;;;;;;5047851;28;19912;-78
2021/12/21 06:55:58;;;;;;;;;;;;;;;;;;5047746;28;20617;-78
2021/12/21 06:58:24;;;;;;;;;;;;;;;;;;5046872;28;20319;-78
2021/12/21 07:00:52;;;;;;;;;;;;;;;;;;5051519;28;19923;-77
2021/12/21 07:03:22;;;;;;;;;;;;;;;;;;5044791;28;19923;-78
2021/12/21 07:05:51;;;;;;;;;;;;;;;;;;5061451;28;19976;-78
2021/12/21 07:08:21;;;;;;;;;;;;;;;;;;5056214;28;19931;-81
2021/12/21 07:18:59;;;;;;;;;;;;;;;;;;5054871;28;19966;-82
2021/12/21 07:21:24;;;;;;;;;;;;;;;;;;5055371;28;19916;-81
2021/12/21 07:23:52;;;;;;;;;;;;;;;;;;5051925;28;19917;-80
2021/12/21 07:26:18;;;;;;;;;;;;;;;;;;5052540;28;19993;-81
2021/12/21 07:28:44;;;;;;;;;;;;;;;;;;5053531;28;19932;-80
2021/12/21 07:31:10;;;;;;;;;;;;;;;;;;5057800;28;20376;-79
2021/12/21 07:33:35;;;;;;;;;;;;;;;;;;5053961;28;20168;-80
2021/12/21 07:36:01;;;;;;;;;;;;;;;;;;5052781;28;19912;-80
2021/12/21 07:38:30;;;;;;;;;;;;;;;;;;5076390;28;19978;-81
2021/12/21 07:40:55;;;;;;;;;;;;;;;;;;5058460;28;21096;-79
2021/12/21 07:43:21;;;;;;;;;;;;;;;;;;5051320;28;19912;-79
2021/12/21 07:45:46;;;;;;;;;;;;;;;;;;5051896;28;19992;-81
2021/12/21 07:48:12;;;;;;;;;;;;;;;;;;5050621;28;20272;-79
2021/12/21 07:50:37;;;;;;;;;;;;;;;;;;5053332;28;19917;-80
2021/12/21 07:53:03;;;;;;;;;;;;;;;;;;5050150;28;19916;-77
2021/12/21 07:55:28;;;;;;;;;;;;;;;;;;5050752;28;19923;-77
2021/12/21 07:57:53;;;;;;;;;;;;;;;;;;5059765;28;19966;-77
2021/12/21 08:00:21;;;;;;;;;;;;;;;;;;5048881;28;19923;-77
2021/12/21 08:02:46;;;;;;;;;;;;;;;;;;5047697;28;20344;-77
2021/12/21 08:05:12;;;;;;;;;;;;;;;;;;5075115;28;19991;-75
2021/12/21 08:08:09;;;;;;;;;;;;;;;;;;5053331;28;19964;-77
2021/12/21 08:10:29;;;;;;;;;;;;;;;;;;5056685;28;19915;-76
2021/12/21 08:12:55;;;;;;;;;;;;;;;;;;5049288;28;19912;-76
2021/12/21 08:15:23;;;;;;;;;;;;;;;;;;5047328;28;19928;-77
2021/12/21 08:17:49;;;;;;;;;;;;;;;;;;5049148;28;19982;-77
2021/12/21 08:20:15;;;;;;;;;;;;;;;;;;5051051;28;19956;-76
2021/12/21 08:22:40;;;;;;;;;;;;;;;;;;5048047;28;19930;-77
2021/12/21 08:25:06;;;;;;;;;;;;;;;;;;5047695;28;20396;-77
2021/12/21 08:27:34;;;;;;;;;;;;;;;;;;5045669;28;19913;-77
2021/12/21 08:29:59;;;;;;;;;;;;;;;;;;5048205;28;19954;-77
2021/12/21 08:32:25;;;;;;;;;;;;;;;;;;5044127;28;19955;-77
2021/12/21 08:34:50;;;;;;;;;;;;;;;;;;5047765;28;19917;-76
2021/12/21 08:37:15;;;;;;;;;;;;;;;;;;5050220;28;19927;-77
2021/12/21 08:39:41;;;;;;;;;;;;;;;;;;5050173;28;19920;-76
2021/12/21 08:42:07;;;;;;;;;;;;;;;;;;5047863;28;19928;-77
2021/12/21 08:44:33;;;;;;;;;;;;;;;;;;5046887;28;19912;-76
2021/12/21 08:46:58;;;;;;;;;;;;;;;;;;5046457;28;19978;-76
2021/12/21 08:49:27;;;;;;;;;;;;;;;;;;5047521;28;20049;-76
2021/12/21 08:51:53;;;;;;;;;;;;;;;;;;5051120;28;19936;-74
2021/12/21 08:54:18;;;;;;;;;;;;;;;;;;5050631;28;20291;-76
2021/12/21 08:56:45;;;;;;;;;;;;;;;;;;5044625;28;19995;-79
2021/12/21 08:59:12;;;;;;;;;;;;;;;;;;5046543;28;19916;-76
2021/12/21 09:01:38;;;;;;;;;;;;;;;;;;5050929;28;19917;-76
2021/12/21 09:04:03;;;;;;;;;;;;;;;;;;5069170;28;19966;-77
2021/12/21 09:06:31;;;;;;;;;;;;;;;;;;5044121;28;19921;-77
2021/12/21 09:08:56;;;;;;;;;;;;;;;;;;5047610;28;19978;-76
2021/12/21 09:11:22;;;;;;;;;;;;;;;;;;5047483;28;19916;-77
2021/12/21 09:13:47;;;;;;;;;;;;;;;;;;5043293;28;20065;-76
2021/12/21 09:16:13;;;;;;;;;;;;;;;;;;5048148;28;19994;-76
2021/12/21 09:18:38;;;;;;;;;;;;;;;;;;5043223;28;19920;-74
2021/12/21 09:21:03;;;;;;;;;;;;;;;;;;5046327;28;19952;-75
2021/12/21 09:23:29;;;;;;;;;;;;;;;;;;5046359;28;19935;-75
2021/12/21 09:25:54;;;;;;;;;;;;;;;;;;5049814;28;19920;-75
2021/12/21 09:28:20;;;;;;;;;;;;;;;;;;5045046;28;20003;-76
2021/12/21 09:30:46;;;;;;;;;;;;;;;;;;5047035;28;20114;-78
2021/12/21 09:33:11;;;;;;;;;;;;;;;;;;5047492;28;19927;-75
2021/12/21 09:35:37;;;;;;;;;;;;;;;;;;5042996;28;19920;-75
2021/12/21 09:38:04;;;;;;;;;;;;;;;;;;5046170;28;19908;-76
2021/12/21 09:40:30;;;;;;;;;;;;;;;;;;5040775;28;19924;-76
2021/12/21 09:42:57;;;;;;;;;;;;;;;;;;5046961;28;19913;-76
2021/12/21 09:45:23;;;;;;;;;;;;;;;;;;5043707;28;20027;-76
2021/12/21 09:47:49;;;;;;;;;;;;;;;;;;5065768;28;20399;-76
2021/12/21 09:50:16;;;;;;;;;;;;;;;;;;5048062;28;20227;-76
2021/12/21 09:52:42;;;;;;;;;;;;;;;;;;5047433;28;19912;-76
2021/12/21 09:55:09;;;;;;;;;;;;;;;;;;5041547;28;20280;-78
2021/12/21 09:57:34;;;;;;;;;;;;;;;;;;5046494;28;19913;-78
2021/12/21 10:00:00;;;;;;;;;;;;;;;;;;5045544;28;19923;-75
2021/12/21 10:02:27;;;;;;;;;;;;;;;;;;5048025;28;19924;-75
2021/12/21 10:04:55;;;;;;;;;;;;;;;;;;5044865;28;19913;-76
2021/12/21 10:07:22;;;;;;;;;;;;;;;;;;5043374;28;19925;-76
2021/12/21 10:09:48;;;;;;;;;;;;;;;;;;5049506;28;20379;-76
2021/12/21 10:12:29;;;;;;;;;;;;;;;;;;5068012;28;19971;-74
2021/12/21 10:15:05;;;;;;;;;;;;;;;;;;5047955;28;19932;-75
2021/12/21 10:17:35;;;;;;;;;;;;;;;;;;5043807;28;19912;-79
2021/12/21 10:20:02;;;;;;;;;;;;;;;;;;5043176;28;19959;-78
2021/12/21 10:22:27;;;;;;;;;;;;;;;;;;5049358;28;19923;-81
2021/12/21 10:24:53;;;;;;;;;;;;;;;;;;5050458;28;19912;-79
2021/12/21 10:27:20;;;;;;;;;;;;;;;;;;5045656;28;19916;-80
2021/12/21 10:29:45;;;;;;;;;;;;;;;;;;5049113;28;20277;-77
2021/12/21 10:32:22;;;;;;;;;;;;;;;;;;5046774;28;19913;-77
2021/12/21 10:35:04;;;;;;;;;;;;;;;;;;5041296;28;19920;-77
2021/12/21 10:37:31;;;;;;;;;;;;;;;;;;5048633;28;19956;-76
2021/12/21 10:40:02;;;;;;;;;;;;;;;;;;5048277;28;20388;-77
2021/12/21 10:42:28;;;;;;;;;;;;;;;;;;5049745;28;19921;-76
2021/12/21 10:45:00;;;;;;;;;;;;;;;;;;5043526;28;19917;-77
2021/12/21 10:47:26;;;;;;;;;;;;;;;;;;5048255;28;19913;-77
2021/12/21 10:49:51;;;;;;;;;;;;;;;;;;5046328;28;19920;-76
2021/12/21 10:52:20;;;;;;;;;;;;;;;;;;5046333;28;19921;-77
2021/12/21 10:54:47;;;;;;;;;;;;;;;;;;5045285;28;19913;-77
2021/12/21 10:57:18;;;;;;;;;;;;;;;;;;5046750;28;19912;-77
2021/12/21 10:59:46;;;;;;;;;;;;;;;;;;5047252;28;20502;-76
2021/12/21 11:02:16;;;;;;;;;;;;;;;;;;5049884;28;20276;-77
2021/12/21 11:04:43;;;;;;;;;;;;;;;;;;5048592;28;19928;-76
2021/12/21 11:07:19;;;;;;;;;;;;;;;;;;5052353;28;20326;-77
2021/12/21 11:09:53;;;;;;;;;;;;;;;;;;5047849;28;20364;-77
2021/12/21 11:12:20;;;;;;;;;;;;;;;;;;5047720;28;19978;-77
2021/12/21 11:14:46;;;;;;;;;;;;;;;;;;5050558;28;20003;-77
2021/12/21 11:17:15;;;;;;;;;;;;;;;;;;5050689;28;20031;-77
2021/12/21 11:19:40;;;;;;;;;;;;;;;;;;5045426;28;19924;-76
2021/12/21 11:22:08;;;;;;;;;;;;;;;;;;5043924;28;19916;-76
2021/12/21 11:24:37;;;;;;;;;;;;;;;;;;5047799;28;19912;-77
2021/12/21 11:27:03;;;;;;;;;;;;;;;;;;5071541;28;20364;-77
2021/12/21 11:29:30;;;;;;;;;;;;;;;;;;5050314;28;19958;-77
2021/12/21 11:31:57;;;;;;;;;;;;;;;;;;5048171;28;19923;-76
2021/12/21 11:34:31;;;;;;;;;;;;;;;;;;5046431;28;19913;-76
2021/12/21 11:39:41;;;;;;;;;;;;;;;;;;5049154;28;20322;-76
2021/12/21 11:42:10;;;;;;;;;;;;;;;;;;5051252;28;19916;-77
2021/12/21 11:44:52;;;;;;;;;;;;;;;;;;5048229;28;20361;-77
2021/12/21 11:47:22;;;;;;;;;;;;;;;;;;5047910;28;20457;-77
2021/12/21 11:49:50;;;;;;;;;;;;;;;;;;5049042;28;19928;-79
2021/12/21 11:52:16;;;;;;;;;;;;;;;;;;5048092;28;20003;-78
2021/12/21 11:54:49;;;;;;;;;;;;;;;;;;5047233;28;19912;-77
2021/12/21 11:57:18;;;;;;;;;;;;;;;;;;5060185;28;19936;-76
2021/12/21 11:59:46;;;;;;;;;;;;;;;;;;5054585;28;19924;-76
2021/12/21 12:02:12;;;;;;;;;;;;;;;;;;5048177;28;19923;-76
2021/12/21 12:04:37;;;;;;;;;;;;;;;;;;5050987;28;19920;-75
2021/12/21 12:07:13;;;;;;;;;;;;;;;;;;5045932;28;20273;-75
2021/12/21 12:09:39;;;;;;;;;;;;;;;;;;5046458;28;20545;-75
2021/12/21 12:12:12;;;;;;;;;;;;;;;;;;5045241;28;20324;-75
2021/12/21 12:14:41;;;;;;;;;;;;;;;;;;5039386;28;19916;-75
2021/12/21 12:17:17;;;;;;;;;;;;;;;;;;5044697;28;19920;-75
2021/12/21 12:19:50;;;;;;;;;;;;;;;;;;5043174;28;19917;-75
2021/12/21 12:22:15;;;;;;;;;;;;;;;;;;5068442;28;20407;-75
2021/12/21 12:24:40;;;;;;;;;;;;;;;;;;5045549;28;19913;-76
2021/12/21 12:27:10;;;;;;;;;;;;;;;;;;5042244;28;19955;-75
2021/12/21 12:29:45;;;;;;;;;;;;;;;;;;5045115;28;19942;-75
2021/12/21 12:32:11;;;;;;;;;;;;;;;;;;5049786;28;19920;-75
2021/12/21 12:34:38;;;;;;;;;;;;;;;;;;5050449;28;19916;-75
2021/12/21 12:37:15;;;;;;;;;;;;;;;;;;5043181;28;20475;-75
2021/12/21 12:39:42;;;;;;;;;;;;;;;;;;5044269;28;19916;-76
2021/12/21 12:42:13;;;;;;;;;;;;;;;;;;5048840;28;19990;-75
2021/12/21 12:44:41;;;;;;;;;;;;;;;;;;5045048;28;19917;-76
2021/12/21 12:47:09;;;;;;;;;;;;;;;;;;5049049;28;19912;-76
2021/12/21 12:49:35;;;;;;;;;;;;;;;;;;5044780;28;20011;-76
2021/12/21 12:52:03;;;;;;;;;;;;;;;;;;5048178;28;19927;-77
2021/12/21 12:54:30;;;;;;;;;;;;;;;;;;5041342;28;19916;-77
2021/12/21 12:56:56;;;;;;;;;;;;;;;;;;5042313;28;19913;-76
2021/12/21 12:59:21;;;;;;;;;;;;;;;;;;5049997;28;19939;-76
2021/12/21 13:01:48;;;;;;;;;;;;;;;;;;5070272;28;19917;-76
2021/12/21 13:04:14;;;;;;;;;;;;;;;;;;5041671;28;19916;-77
2021/12/21 13:06:41;;;;;;;;;;;;;;;;;;5046972;28;19913;-75
2021/12/21 13:09:08;;;;;;;;;;;;;;;;;;5046404;28;20450;-75
2021/12/21 13:11:35;;;;;;;;;;;;;;;;;;5069044;28;19913;-76
2021/12/21 13:14:01;;;;;;;;;;;;;;;;;;5045165;28;19924;-76
2021/12/21 13:16:28;;;;;;;;;;;;;;;;;;5062567;28;20117;-76
2021/12/21 13:18:58;;;;;;;;;;;;;;;;;;5047582;28;19912;-76
2021/12/21 13:21:25;;;;;;;;;;;;;;;;;;5065330;28;20007;-76
2021/12/21 13:23:51;;;;;;;;;;;;;;;;;;5042575;28;19916;-76
2021/12/21 13:26:19;;;;;;;;;;;;;;;;;;5040168;28;19968;-74
2021/12/21 13:28:49;;;;;;;;;;;;;;;;;;5043622;28;19925;-75
2021/12/21 13:31:16;;;;;;;;;;;;;;;;;;5069838;28;19913;-75
2021/12/21 13:33:41;;;;;;;;;;;;;;;;;;5047458;28;19912;-76
2021/12/21 13:36:07;;;;;;;;;;;;;;;;;;5048820;28;19912;-76
2021/12/21 13:38:34;;;;;;;;;;;;;;;;;;5046612;28;20287;-76
2021/12/21 13:41:07;;;;;;;;;;;;;;;;;;5043271;28;19920;-76
2021/12/21 13:43:33;;;;;;;;;;;;;;;;;;5047982;28;19917;-76
2021/12/21 13:46:03;;;;;;;;;;;;;;;;;;5075377;28;20383;-76
2021/12/21 13:48:29;;;;;;;;;;;;;;;;;;5040792;28;19917;-76
2021/12/21 13:51:05;;;;;;;;;;;;;;;;;;5042040;28;19919;-76
2021/12/21 13:53:30;;;;;;;;;;;;;;;;;;5048203;28;19928;-76
2021/12/21 13:55:56;;;;;;;;;;;;;;;;;;5043394;28;19921;-77
2021/12/21 13:58:21;;;;;;;;;;;;;;;;;;5045643;28;20299;-76
2021/12/21 14:00:51;;;;;;;;;;;;;;;;;;5041293;28;20043;-76
2021/12/21 14:03:32;;;;;;;;;;;;;;;;;;5046284;28;19924;-76
2021/12/21 14:06:08;;;;;;;;;;;;;;;;;;5045691;28;20032;-75
2021/12/21 14:08:34;;;;;;;;;;;;;;;;;;5044880;28;20443;-76
2021/12/21 14:11:00;;;;;;;;;;;;;;;;;;5050708;28;20046;-77
2021/12/21 14:13:30;;;;;;;;;;;;;;;;;;5046532;28;19917;-76
2021/12/21 14:15:55;;;;;;;;;;;;;;;;;;5052373;28;20296;-76
2021/12/21 14:18:22;;;;;;;;;;;;;;;;;;5049804;28;19920;-76
2021/12/21 14:20:49;;;;;;;;;;;;;;;;;;5053288;28;19925;-76
2021/12/21 14:23:19;;;;;;;;;;;;;;;;;;5050057;28;20257;-76
2021/12/21 14:25:45;;;;;;;;;;;;;;;;;;5047120;28;19947;-76
2021/12/21 14:28:11;;;;;;;;;;;;;;;;;;5046347;28;20001;-76
2021/12/21 14:30:36;;;;;;;;;;;;;;;;;;5048761;28;19924;-76
2021/12/21 14:33:09;;;;;;;;;;;;;;;;;;5052004;28;19924;-75
2021/12/21 14:35:35;;;;;;;;;;;;;;;;;;5046426;28;19924;-74
2021/12/21 14:38:04;;;;;;;;;;;;;;;;;;5048128;28;19917;-75
2021/12/21 14:40:30;;;;;;;;;;;;;;;;;;5069790;28;20211;-75
2021/12/21 14:42:55;;;;;;;;;;;;;;;;;;5052710;28;20379;-76
2021/12/21 14:45:25;;;;;;;;;;;;;;;;;;5049701;28;20015;-74
2021/12/21 14:47:53;;;;;;;;;;;;;;;;;;5048412;28;20058;-76
2021/12/21 14:50:21;;;;;;;;;;;;;;;;;;5050296;28;20245;-76
2021/12/21 14:52:49;;;;;;;;;;;;;;;;;;5044721;28;19935;-76
2021/12/21 14:55:21;;;;;;;;;;;;;;;;;;5046062;28;20007;-76
2021/12/21 14:57:59;;;;;;;;;;;;;;;;;;5051070;28;19917;-76
2021/12/21 15:00:48;;;;;;;;;;;;;;;;;;5047644;28;20383;-75
2021/12/21 15:03:17;;;;;;;;;;;;;;;;;;5042284;28;19912;-76
2021/12/21 15:05:43;;;;;;;;;;;;;;;;;;5047728;28;19912;-75
2021/12/21 15:08:12;;;;;;;;;;;;;;;;;;5046631;28;19917;-75
2021/12/21 15:10:39;;;;;;;;;;;;;;;;;;5047423;28;19917;-76
2021/12/21 15:13:05;;;;;;;;;;;;;;;;;;5050305;28;19923;-76
2021/12/21 15:15:31;;;;;;;;;;;;;;;;;;5051809;28;19912;-77
2021/12/21 15:17:56;;;;;;;;;;;;;;;;;;5047776;28;19940;-79
2021/12/21 15:20:23;;;;;;;;;;;;;;;;;;5047193;28;19963;-78
2021/12/21 15:22:49;;;;;;;;;;;;;;;;;;5048454;28;20316;-78
2021/12/21 15:25:14;;;;;;;;;;;;;;;;;;5055881;28;19916;-79
2021/12/21 15:27:42;;;;;;;;;;;;;;;;;;5047891;28;19958;-78
2021/12/21 15:30:09;;;;;;;;;;;;;;;;;;5053552;28;19916;-78
2021/12/21 15:32:35;;;;;;;;;;;;;;;;;;5051824;28;20358;-78
2021/12/21 15:35:01;;;;;;;;;;;;;;;;;;5054916;28;19956;-78
2021/12/21 15:37:29;;;;;;;;;;;;;;;;;;5053013;28;19924;-77
2021/12/21 15:39:54;;;;;;;;;;;;;;;;;;5048789;28;20027;-77
2021/12/21 15:42:23;;;;;;;;;;;;;;;;;;5046975;28;20012;-77
2021/12/21 15:44:55;;;;;;;;;;;;;;;;;;5047113;28;20288;-77
2021/12/21 15:47:23;;;;;;;;;;;;;;;;;;5050031;28;19935;-77
2021/12/21 15:49:49;;;;;;;;;;;;;;;;;;5049389;28;19913;-76
2021/12/21 15:52:14;;;;;;;;;;;;;;;;;;5050121;28;20000;-77
2021/12/21 15:54:42;;;;;;;;;;;;;;;;;;5045709;28;20004;-77
2021/12/21 15:57:08;;;;;;;;;;;;;;;;;;5048605;28;19912;-77
2021/12/21 15:59:34;;;;;;;;;;;;;;;;;;5049512;28;20434;-77
2021/12/21 16:02:00;;;;;;;;;;;;;;;;;;5048110;28;20079;-77
2021/12/21 16:04:25;;;;;;;;;;;;;;;;;;5047577;28;19916;-77
2021/12/21 16:06:51;;;;;;;;;;;;;;;;;;5045788;28;20367;-77
2021/12/21 16:09:17;;;;;;;;;;;;;;;;;;5048649;28;19935;-77
2021/12/21 16:11:45;;;;;;;;;;;;;;;;;;5049478;28;19913;-79
2021/12/21 16:14:11;;;;;;;;;;;;;;;;;;5048950;28;20011;-76
2021/12/21 16:16:37;;;;;;;;;;;;;;;;;;5048427;28;20027;-77
2021/12/21 16:19:06;;;;;;;;;;;;;;;;;;5075918;28;19924;-77
2021/12/21 16:21:32;;;;;;;;;;;;;;;;;;5059471;28;19965;-76
2021/12/21 16:23:58;;;;;;;;;;;;;;;;;;5081319;28;20342;-77
2021/12/21 16:26:23;;;;;;;;;;;;;;;;;;5048569;28;20414;-76
2021/12/21 16:28:48;;;;;;;;;;;;;;;;;;5048735;28;20307;-78
2021/12/21 16:31:18;;;;;;;;;;;;;;;;;;5046950;28;19917;-76
2021/12/21 16:33:44;;;;;;;;;;;;;;;;;;5047331;28;19913;-77
2021/12/21 16:36:11;;;;;;;;;;;;;;;;;;5045280;28;19920;-76
2021/12/21 16:38:41;;;;;;;;;;;;;;;;;;5047591;28;19994;-76
2021/12/21 16:41:06;;;;;;;;;;;;;;;;;;5047125;28;20319;-77
2021/12/21 16:43:33;;;;;;;;;;;;;;;;;;5049091;28;19921;-77
2021/12/21 16:46:04;;;;;;;;;;;;;;;;;;5046251;28;20367;-77
2021/12/21 16:48:30;;;;;;;;;;;;;;;;;;5050449;28;19916;-76
2021/12/21 16:50:58;;;;;;;;;;;;;;;;;;5045802;28;19913;-76
2021/12/21 16:53:24;;;;;;;;;;;;;;;;;;5046832;28;19999;-77
2021/12/21 16:55:49;;;;;;;;;;;;;;;;;;5053919;28;19992;-76
2021/12/21 16:58:16;;;;;;;;;;;;;;;;;;5049379;28;19923;-77
2021/12/21 17:00:42;;;;;;;;;;;;;;;;;;5046707;28;20003;-77
2021/12/21 17:03:07;;;;;;;;;;;;;;;;;;5050338;28;20420;-77
2021/12/21 17:05:32;;;;;;;;;;;;;;;;;;5048804;28;20276;-77
2021/12/21 17:08:00;;;;;;;;;;;;;;;;;;5049718;28;19920;-77
2021/12/21 17:10:26;;;;;;;;;;;;;;;;;;5048443;28;19924;-77
2021/12/21 17:12:51;;;;;;;;;;;;;;;;;;5048258;28;19917;-77
2021/12/21 17:15:17;;;;;;;;;;;;;;;;;;5046957;28;20288;-77
2021/12/21 17:17:46;;;;;;;;;;;;;;;;;;5047678;28;20468;-77
2021/12/21 17:20:14;;;;;;;;;;;;;;;;;;5048839;28;20012;-75
2021/12/21 17:22:42;;;;;;;;;;;;;;;;;;5045403;28;20344;-77
2021/12/21 17:25:08;;;;;;;;;;;;;;;;;;5072282;28;19919;-78
2021/12/21 17:27:33;;;;;;;;;;;;;;;;;;5045542;28;19913;-77
2021/12/21 17:29:59;;;;;;;;;;;;;;;;;;5051787;28;19917;-76
2021/12/21 17:32:24;;;;;;;;;;;;;;;;;;5073577;28;19912;-77
2021/12/21 17:34:50;;;;;;;;;;;;;;;;;;5049824;28;20387;-76
2021/12/21 17:37:18;;;;;;;;;;;;;;;;;;5074942;28;19916;-76
2021/12/21 17:39:47;;;;;;;;;;;;;;;;;;5052843;28;19917;-78
2021/12/21 17:42:13;;;;;;;;;;;;;;;;;;5048578;28;19923;-77
2021/12/21 17:44:42;;;;;;;;;;;;;;;;;;5045310;28;19917;-77